Time;durP1;ratioP1;P1;durP2;ratioP2;P2;SDS_P1;SDS_P2;PMS_P1;PMS_P2;Temp;Humidity;BMP_temperature;BMP_pressure;BME280_temperature;BME280_humidity;BME280_pressure;Samples;Min_cycle;Max_cycle;Signal;HPM_P1;HPM_P2
2021/01/02 00:02:52;;;;;;;130.15;53.92;;;;;;;-0.85;84.09;100246.88;1761008;81;21433;-80
2021/01/02 00:05:19;;;;;;;153.50;62.08;;;;;;;-0.90;84.10;100248.95;1692445;83;21279;-81
2021/01/02 00:08:03;;;;;;;158.05;63.30;;;;;;;-0.94;84.13;100249.25;1760288;81;22015;-80
2021/01/02 00:11:15;;;;;;;129.63;52.05;;;;;;;-0.94;84.16;100239.63;1798182;79;22818;-82
2021/01/02 00:13:56;;;;;;;149.53;61.70;;;;;;;-1.01;84.19;100249.66;1764595;80;21187;-81
2021/01/02 00:17:01;;;;;;;125.75;55.38;;;;;;;-1.05;84.17;100246.87;1768503;79;21762;-81
2021/01/02 00:19:42;;;;;;;151.45;66.40;;;;;;;-1.09;84.13;100245.88;1792750;79;21195;-81
2021/01/02 00:22:13;;;;;;;208.80;84.40;;;;;;;-1.12;84.12;100251.28;1795786;79;21155;-82
2021/01/02 00:24:54;;;;;;;256.40;96.63;;;;;;;-1.14;84.12;100253.17;1795115;78;21115;-82
2021/01/02 00:27:47;;;;;;;251.47;96.95;;;;;;;-1.16;84.12;100247.22;1798070;78;21179;-83
2021/01/02 00:30:18;;;;;;;135.15;57.20;;;;;;;-1.07;84.11;100257.08;1794417;78;21203;-81
2021/01/02 00:33:13;;;;;;;178.75;72.62;;;;;;;-1.08;84.10;100263.23;1789579;79;21182;-80
2021/01/02 00:35:40;;;;;;;226.62;88.27;;;;;;;-1.10;84.07;100259.89;1795890;79;21770;-80
2021/01/02 00:38:07;;;;;;;219.22;84.87;;;;;;;-1.10;84.08;100257.28;1765420;79;21159;-80
2021/01/02 00:40:36;;;;;;;180.27;71.87;;;;;;;-1.07;84.11;100262.31;1732003;82;21247;-80
2021/01/02 00:43:03;;;;;;;181.12;69.07;;;;;;;-1.02;84.13;100260.21;1732323;82;22164;-83
2021/01/02 00:45:30;;;;;;;175.03;71.10;;;;;;;-0.96;84.16;100265.06;1732008;82;21163;-82
2021/01/02 00:47:56;;;;;;;166.45;68.47;;;;;;;-0.90;84.18;100267.27;1734920;81;21219;-82
2021/01/02 00:50:24;;;;;;;170.72;72.25;;;;;;;-0.86;84.17;100273.98;1779206;80;21150;-81
2021/01/02 00:52:59;;;;;;;148.02;59.08;;;;;;;-0.83;84.19;100268.55;1748847;81;21241;-83
2021/01/02 00:55:47;;;;;;;137.80;55.48;;;;;;;-0.81;84.21;100270.58;1731693;82;22047;-83
2021/01/02 00:58:35;;;;;;;133.32;51.45;;;;;;;-0.81;84.24;100271.89;1750821;81;21243;-83
2021/01/02 01:01:04;;;;;;;128.20;52.70;;;;;;;-0.87;84.20;100272.30;1786477;80;21148;-83
2021/01/02 01:04:15;;;;;;;119.67;49.08;;;;;;;-0.91;84.20;100274.75;1776691;80;21163;-81
2021/01/02 01:06:42;;;;;;;159.63;59.05;;;;;;;-0.92;84.18;100278.33;1784576;80;21238;-81
2021/01/02 01:09:09;;;;;;;142.72;59.25;;;;;;;-0.93;84.21;100281.03;1772332;80;21232;-80
2021/01/02 01:11:36;;;;;;;235.40;75.22;;;;;;;-0.97;84.23;100281.70;1703887;80;21165;-80
2021/01/02 01:14:03;;;;;;;184.03;68.17;;;;;;;-1.00;84.23;100284.52;1766979;80;21196;-80
2021/01/02 01:16:41;;;;;;;160.45;58.13;;;;;;;-1.03;84.23;100291.27;1780501;80;21155;-80
2021/01/02 01:19:08;;;;;;;167.72;59.65;;;;;;;-1.05;84.21;100291.35;1748437;81;21220;-80
2021/01/02 01:21:36;;;;;;;159.67;56.83;;;;;;;-1.08;84.21;100292.02;1748369;81;21269;-80
2021/01/02 01:24:25;;;;;;;173.50;60.17;;;;;;;-1.04;84.22;100294.81;1809996;78;23367;-81
2021/01/02 01:27:17;;;;;;;146.70;57.33;;;;;;;-1.10;84.22;100286.90;1796640;79;21159;-80
2021/01/02 01:29:57;;;;;;;123.00;50.23;;;;;;;-1.01;84.22;100295.91;1792865;78;21636;-80
2021/01/02 01:32:24;;;;;;;111.25;44.67;;;;;;;-1.00;84.23;100296.30;1788639;80;21215;-80
2021/01/02 01:34:59;;;;;;;127.75;52.38;;;;;;;-1.00;84.27;100302.84;1788538;80;21159;-80
2021/01/02 01:37:28;;;;;;;135.95;52.33;;;;;;;-0.97;84.30;100298.70;1789132;80;21497;-80
2021/01/02 01:39:54;;;;;;;137.80;54.15;;;;;;;-0.95;84.29;100300.75;1789324;80;21132;-80
2021/01/02 01:42:42;;;;;;;127.90;50.63;;;;;;;-0.90;84.31;100303.91;1789114;80;21305;-80
2021/01/02 01:45:41;;;;;;;135.32;53.15;;;;;;;-0.80;84.31;100304.15;1755693;80;21659;-80
2021/01/02 01:48:11;;;;;;;137.45;56.50;;;;;;;-0.78;84.33;100310.98;1784949;80;21191;-80
2021/01/02 01:50:58;;;;;;;;;;;;;;;-0.74;84.34;100309.81;1734779;82;21178;-80
2021/01/02 01:54:21;;;;;;;139.20;51.45;;;;;;;-0.71;84.34;100309.64;1717958;80;20305;-80
2021/01/02 01:56:50;;;;;;;138.40;52.73;;;;;;;-0.77;84.38;100307.41;1695466;84;21252;-80
2021/01/02 01:59:22;;;;;;;164.27;62.03;;;;;;;-0.78;84.40;100313.60;1671865;84;21301;-80
2021/01/02 02:01:52;;;;;;;148.65;55.60;;;;;;;-0.79;84.40;100317.15;1744892;80;21112;-80
2021/01/02 02:04:33;;;;;;;;;;;;;;;-0.74;84.37;100315.05;1791173;80;21144;-80
2021/01/02 02:07:01;;;;;;;150.85;57.23;;;;;;;-0.69;84.34;100316.91;1786006;80;20298;-80
2021/01/02 02:09:45;;;;;;;140.50;55.73;;;;;;;-0.64;84.32;100320.55;1788512;80;21238;-80
2021/01/02 02:12:22;;;;;;;179.38;63.25;;;;;;;-0.59;84.34;100323.22;1788309;80;21557;-80
2021/01/02 02:15:06;;;;;;;140.90;53.17;;;;;;;-0.49;84.35;100313.46;1788451;80;21092;-80
2021/01/02 02:17:43;;;;;;;136.70;52.75;;;;;;;-0.45;84.33;100317.52;1788515;80;21573;-80
2021/01/02 02:20:17;;;;;;;133.00;54.05;;;;;;;-0.51;84.36;100317.48;1788326;80;21195;-80
2021/01/02 02:22:43;;;;;;;314.75;116.12;;;;;;;-0.56;84.37;100321.70;1786754;80;21181;-80
2021/01/02 02:25:15;;;;;;;293.05;118.25;;;;;;;-0.56;84.41;100319.08;1781238;80;21179;-80
2021/01/02 02:27:44;;;;;;;127.17;51.50;;;;;;;-0.54;84.40;100320.30;1781488;80;21152;-80
2021/01/02 02:30:15;;;;;;;121.60;51.63;;;;;;;-0.53;84.39;100320.19;1781313;80;21156;-80
2021/01/02 02:32:47;;;;;;;118.67;48.85;;;;;;;-0.53;84.36;100316.25;1781229;80;21172;-80
2021/01/02 02:35:20;;;;;;;122.00;51.45;;;;;;;-0.49;84.37;100318.70;1780864;80;21897;-81
2021/01/02 02:37:51;;;;;;;142.05;57.35;;;;;;;-0.47;84.35;100325.50;1780694;80;21169;-80
2021/01/02 02:40:20;;;;;;;160.52;63.92;;;;;;;-0.48;84.35;100323.81;1780384;80;21172;-81
2021/01/02 02:43:01;;;;;;;119.30;50.30;;;;;;;-0.41;84.33;100325.55;1780443;80;21167;-80
2021/01/02 02:45:32;;;;;;;119.70;51.28;;;;;;;-0.45;84.31;100326.23;1780969;80;21628;-80
2021/01/02 02:48:02;;;;;;;110.22;47.65;;;;;;;-0.48;84.31;100329.52;1780879;80;22027;-80
2021/01/02 02:50:29;;;;;;;108.42;49.10;;;;;;;-0.52;84.33;100325.80;1780471;80;21739;-80
2021/01/02 02:53:12;;;;;;;111.80;49.65;;;;;;;-0.54;84.33;100326.39;1780806;80;21144;-80
2021/01/02 02:55:40;;;;;;;119.53;50.98;;;;;;;-0.55;84.33;100323.85;1780697;80;21136;-80
2021/01/02 02:58:07;;;;;;;111.08;49.15;;;;;;;-0.55;84.34;100324.70;1780930;80;21145;-80
2021/01/02 03:00:33;;;;;;;120.15;51.70;;;;;;;-0.54;84.37;100327.70;1780827;80;21196;-80
2021/01/02 03:03:01;;;;;;;141.95;52.60;;;;;;;-0.55;84.35;100327.31;1780743;80;21159;-80
2021/01/02 03:05:27;;;;;;;110.55;47.70;;;;;;;-0.53;84.36;100326.73;1780762;80;21569;-80
2021/01/02 03:07:53;;;;;;;118.60;46.68;;;;;;;-0.52;84.38;100330.19;1780375;80;21227;-80
2021/01/02 03:10:21;;;;;;;100.70;43.80;;;;;;;-0.52;84.40;100333.66;1780493;80;21204;-80
2021/01/02 03:12:50;;;;;;;118.70;47.20;;;;;;;-0.53;84.40;100330.66;1780179;80;21245;-80
2021/01/02 03:15:22;;;;;;;87.50;36.50;;;;;;;-0.53;84.42;100329.34;1780874;80;21637;-80
2021/01/02 03:17:49;;;;;;;129.10;49.93;;;;;;;-0.51;84.45;100325.33;1780604;80;22205;-81
2021/01/02 03:20:17;;;;;;;153.90;56.70;;;;;;;-0.48;84.46;100326.91;1780692;80;21140;-80
2021/01/02 03:22:45;;;;;;;130.25;51.90;;;;;;;-0.46;84.46;100327.66;1780634;80;21236;-81
2021/01/02 03:25:13;;;;;;;142.03;58.17;;;;;;;-0.44;84.48;100332.31;1780727;80;21316;-80
2021/01/02 03:27:40;;;;;;;111.97;46.48;;;;;;;-0.37;84.49;100328.34;1780789;80;21068;-80
2021/01/02 03:30:10;;;;;;;120.92;49.95;;;;;;;-0.32;84.45;100328.88;1780697;80;21120;-80
2021/01/02 03:32:36;;;;;;;122.02;51.42;;;;;;;-0.30;84.48;100324.38;1780154;80;21192;-80
2021/01/02 03:35:08;;;;;;;118.93;51.30;;;;;;;-0.29;84.49;100323.44;1780591;80;21144;-80
2021/01/02 03:37:35;;;;;;;118.85;48.00;;;;;;;-0.27;84.49;100329.40;1780567;80;21652;-80
2021/01/02 03:40:01;;;;;;;101.55;44.30;;;;;;;-0.23;84.47;100330.88;1780423;80;21128;-80
2021/01/02 03:42:27;;;;;;;109.45;49.27;;;;;;;-0.19;84.48;100332.35;1780675;80;21589;-81
2021/01/02 03:44:53;;;;;;;106.95;48.23;;;;;;;-0.26;84.47;100335.02;1780746;80;21184;-81
2021/01/02 03:47:20;;;;;;;115.55;47.95;;;;;;;-0.30;84.49;100337.47;1780634;80;21139;-80
2021/01/02 03:49:46;;;;;;;114.10;49.83;;;;;;;-0.29;84.51;100335.23;1780895;80;21187;-80
2021/01/02 03:52:12;;;;;;;110.63;48.78;;;;;;;-0.22;84.49;100338.64;1780647;80;21546;-81
2021/01/02 03:54:39;;;;;;;120.20;49.80;;;;;;;-0.19;84.47;100334.97;1780679;80;21609;-80
2021/01/02 03:57:05;;;;;;;131.90;53.90;;;;;;;-0.19;84.49;100333.20;1780699;80;21151;-80
2021/01/02 03:59:31;;;;;;;108.03;48.48;;;;;;;-0.18;84.53;100333.58;1780396;80;21176;-80
2021/01/02 04:01:58;;;;;;;115.60;47.73;;;;;;;-0.22;84.56;100328.17;1779861;80;22171;-80
2021/01/02 04:04:25;;;;;;;116.70;46.28;;;;;;;-0.20;84.57;100330.66;1780539;80;21598;-80
2021/01/02 04:06:51;;;;;;;104.07;43.80;;;;;;;-0.16;84.56;100329.05;1780835;80;21587;-80
2021/01/02 04:09:18;;;;;;;105.85;42.53;;;;;;;-0.14;84.56;100331.58;1780508;80;21115;-80
2021/01/02 04:11:45;;;;;;;115.35;47.23;;;;;;;-0.12;84.57;100333.61;1780709;80;21172;-80
2021/01/02 04:14:11;;;;;;;115.97;49.65;;;;;;;-0.14;84.58;100338.13;1780649;80;22126;-80
2021/01/02 04:16:38;;;;;;;110.90;49.40;;;;;;;-0.06;84.58;100333.19;1780656;80;21569;-80
2021/01/02 04:19:04;;;;;;;119.17;50.33;;;;;;;0.01;84.58;100334.45;1780744;80;21600;-80
2021/01/02 04:21:32;;;;;;;125.80;54.13;;;;;;;-0.04;84.60;100327.39;1780293;80;21180;-80
2021/01/02 04:23:58;;;;;;;122.67;53.52;;;;;;;-0.11;84.59;100327.44;1780106;80;21100;-80
2021/01/02 04:26:24;;;;;;;125.38;52.17;;;;;;;-0.17;84.60;100321.28;1787998;80;21266;-80
2021/01/02 04:28:51;;;;;;;125.12;52.13;;;;;;;-0.20;84.60;100326.73;1788002;80;21172;-80
2021/01/02 04:31:22;;;;;;;119.10;53.28;;;;;;;-0.23;84.62;100330.41;1787829;80;21128;-80
2021/01/02 04:33:48;;;;;;;;;;;;;;;-0.31;84.62;100329.23;1790437;80;21782;-80
2021/01/02 04:36:16;;;;;;;107.27;45.67;;;;;;;-0.34;84.59;100332.91;1787927;80;20747;-81
2021/01/02 04:38:43;;;;;;;114.65;46.53;;;;;;;-0.35;84.61;100327.78;1787929;80;22211;-80
2021/01/02 04:41:14;;;;;;;98.40;42.78;;;;;;;-0.37;84.59;100334.89;1787880;80;21639;-80
2021/01/02 04:43:48;;;;;;;110.00;50.52;;;;;;;-0.40;84.55;100338.56;1787816;80;21156;-80
2021/01/02 04:46:14;;;;;;;114.60;49.75;;;;;;;-0.37;84.56;100330.96;1787872;80;21172;-80
2021/01/02 04:48:42;;;;;;;109.87;49.13;;;;;;;-0.41;84.58;100338.19;1787010;80;21445;-80
2021/01/02 04:51:09;;;;;;;105.58;47.27;;;;;;;-0.46;84.58;100336.83;1787645;80;21416;-80
2021/01/02 04:53:35;;;;;;;104.72;46.63;;;;;;;-0.49;84.61;100337.84;1787850;80;21179;-80
2021/01/02 04:56:04;;;;;;;99.83;42.67;;;;;;;-0.51;84.60;100340.58;1787896;80;21123;-80
2021/01/02 04:58:31;;;;;;;100.27;46.20;;;;;;;-0.48;84.60;100340.00;1787843;80;21693;-80
2021/01/02 05:00:58;;;;;;;105.95;47.85;;;;;;;-0.49;84.58;100348.81;1787907;80;21135;-80
2021/01/02 05:03:24;;;;;;;100.55;43.28;;;;;;;-0.52;84.62;100338.89;1787935;80;21181;-80
2021/01/02 05:05:51;;;;;;;106.12;47.30;;;;;;;-0.57;84.57;100345.39;1787235;80;21128;-80
2021/01/02 05:08:17;;;;;;;102.42;46.20;;;;;;;-0.60;84.56;100349.02;1787916;80;21724;-80
2021/01/02 05:11:01;;;;;;;105.63;47.30;;;;;;;-0.62;84.59;100353.54;1787856;80;21631;-80
2021/01/02 05:13:29;;;;;;;104.72;48.28;;;;;;;-0.64;84.59;100366.37;1787139;78;21151;-80
2021/01/02 05:15:57;;;;;;;112.10;50.50;;;;;;;-0.67;84.61;100362.14;1787900;80;21210;-80
2021/01/02 05:18:23;;;;;;;119.33;49.25;;;;;;;-0.61;84.61;100365.70;1787323;80;21167;-80
2021/01/02 05:20:49;;;;;;;105.63;47.62;;;;;;;-0.60;84.63;100362.61;1788027;80;21116;-80
2021/01/02 05:23:16;;;;;;;106.78;47.70;;;;;;;-0.67;84.63;100368.69;1787544;80;21152;-80
2021/01/02 05:25:42;;;;;;;95.77;43.30;;;;;;;-0.72;84.62;100372.09;1787443;80;21124;-80
2021/01/02 05:28:17;;;;;;;98.15;42.58;;;;;;;-0.77;84.63;100372.84;1787533;80;22121;-80
2021/01/02 05:30:44;;;;;;;92.62;39.90;;;;;;;-0.74;84.66;100371.83;1787336;80;21183;-80
2021/01/02 05:33:13;;;;;;;91.92;39.63;;;;;;;-0.70;84.69;100370.67;1787329;80;21541;-80
2021/01/02 05:35:45;;;;;;;91.82;42.15;;;;;;;-0.69;84.70;100378.91;1756602;80;21132;-81
2021/01/02 05:38:21;;;;;;;98.95;43.10;;;;;;;-0.67;84.72;100381.78;1787211;80;21183;-80
2021/01/02 05:40:56;;;;;;;107.30;46.42;;;;;;;-0.60;84.78;100380.45;1785354;80;22160;-80
2021/01/02 05:43:25;;;;;;;104.43;44.33;;;;;;;-0.49;84.75;100381.55;1787340;80;21120;-80
2021/01/02 05:45:52;;;;;;;101.97;46.30;;;;;;;-0.38;84.76;100384.28;1787518;80;21116;-81
2021/01/02 05:48:23;;;;;;;100.50;45.65;;;;;;;-0.34;84.76;100385.77;1786940;80;21585;-80
2021/01/02 05:50:55;;;;;;;102.90;47.08;;;;;;;-0.36;84.76;100387.66;1787391;80;21658;-80
2021/01/02 05:53:33;;;;;;;102.12;46.23;;;;;;;-0.44;84.78;100389.94;1787456;80;21258;-81
2021/01/02 05:56:10;;;;;;;90.80;43.23;;;;;;;-0.51;84.78;100391.66;1787391;80;21125;-81
2021/01/02 05:58:42;;;;;;;98.58;44.03;;;;;;;-0.51;84.77;100395.58;1787441;80;21585;-80
2021/01/02 06:01:14;;;;;;;99.83;43.68;;;;;;;-0.55;84.74;100392.78;1786887;80;21143;-80
2021/01/02 06:03:43;;;;;;;104.43;47.00;;;;;;;-0.56;84.73;100394.19;1787273;80;21203;-80
2021/01/02 06:06:11;;;;;;;100.65;46.18;;;;;;;-0.60;84.70;100397.47;1787484;80;21195;-80
2021/01/02 06:08:46;;;;;;;113.35;48.23;;;;;;;-0.64;84.70;100404.34;1787288;80;21132;-80
2021/01/02 06:11:16;;;;;;;109.75;47.27;;;;;;;-0.65;84.72;100406.11;1787652;80;21119;-80
2021/01/02 06:13:45;;;;;;;114.90;51.80;;;;;;;-0.66;84.69;100404.42;1787446;80;21576;-80
2021/01/02 06:16:12;;;;;;;85.77;39.03;;;;;;;-0.66;84.71;100413.58;1787705;80;21199;-80
2021/01/02 06:18:40;;;;;;;99.90;45.38;;;;;;;-0.68;84.72;100421.17;1787627;80;21197;-80
2021/01/02 06:21:15;;;;;;;116.17;47.70;;;;;;;-0.72;84.69;100413.98;1787458;80;21136;-80
2021/01/02 06:23:42;;;;;;;107.50;46.48;;;;;;;-0.74;84.68;100414.53;1787418;80;21135;-80
2021/01/02 06:26:10;;;;;;;101.18;44.42;;;;;;;-0.75;84.71;100418.11;1787473;80;21120;-80
2021/01/02 06:28:38;;;;;;;101.97;45.43;;;;;;;-0.77;84.70;100414.73;1787647;80;21609;-80
2021/01/02 06:31:10;;;;;;;97.67;42.67;;;;;;;-0.77;84.70;100420.44;1787417;80;21254;-80
2021/01/02 06:33:36;;;;;;;102.07;42.85;;;;;;;-0.74;84.73;100417.16;1787543;80;21151;-80
2021/01/02 06:36:03;;;;;;;108.27;48.87;;;;;;;-0.68;84.73;100424.64;1787546;80;21554;-80
2021/01/02 06:38:29;;;;;;;107.72;46.98;;;;;;;-0.63;84.73;100426.48;1787403;80;21183;-80
2021/01/02 06:40:57;;;;;;;115.42;48.63;;;;;;;-0.60;84.75;100422.84;1787371;80;21124;-80
2021/01/02 06:43:38;;;;;;;114.60;49.63;;;;;;;-0.59;84.79;100429.27;1787562;80;21155;-80
2021/01/02 06:46:05;;;;;;;116.28;51.25;;;;;;;-0.56;84.81;100429.07;1786855;80;21561;-80
2021/01/02 06:48:34;;;;;;;197.05;92.00;;;;;;;-0.51;84.83;100434.87;1787269;80;21153;-80
2021/01/02 06:51:03;;;;;;;144.02;64.58;;;;;;;-0.45;84.85;100440.63;1787612;80;28841;-79
2021/01/02 06:53:36;;;;;;;162.85;66.72;;;;;;;-0.47;84.87;100443.37;1787581;80;21179;-80
2021/01/02 06:56:09;;;;;;;242.60;111.45;;;;;;;-0.50;84.87;100446.19;1787317;80;21676;-80
2021/01/02 06:58:45;;;;;;;195.65;83.60;;;;;;;-0.52;84.88;100450.20;1787530;80;21202;-80
2021/01/02 07:01:26;;;;;;;129.97;54.38;;;;;;;-0.51;84.90;100447.96;1786956;80;21136;-80
2021/01/02 07:03:52;;;;;;;109.92;50.15;;;;;;;-0.46;84.89;100451.61;1787597;80;21128;-81
2021/01/02 07:06:26;;;;;;;125.42;54.42;;;;;;;-0.43;84.91;100452.71;1787580;80;21128;-80
2021/01/02 07:09:02;;;;;;;122.42;54.38;;;;;;;-0.41;84.92;100448.20;1787549;80;21155;-80
2021/01/02 07:11:45;;;;;;;142.10;57.58;;;;;;;-0.42;84.93;100448.32;1787457;80;21172;-80
2021/01/02 07:14:21;;;;;;;138.35;58.70;;;;;;;-0.48;84.90;100453.47;1787436;80;21136;-80
2021/01/02 07:17:01;;;;;;;140.15;57.80;;;;;;;-0.49;84.90;100453.09;1787392;80;21557;-80
2021/01/02 07:19:36;;;;;;;134.50;55.33;;;;;;;-0.43;84.92;100449.25;1787526;80;21151;-80
2021/01/02 07:22:16;;;;;;;136.47;57.55;;;;;;;-0.45;84.92;100459.81;1787481;80;21191;-80
2021/01/02 07:24:52;;;;;;;126.25;52.85;;;;;;;-0.44;84.95;100458.03;1787413;79;21156;-81
2021/01/02 07:27:23;;;;;;;215.90;92.95;;;;;;;-0.51;84.95;100461.06;1787835;80;21108;-81
2021/01/02 07:29:52;;;;;;;225.80;99.10;;;;;;;-0.54;84.93;100461.72;1787840;80;21139;-80
2021/01/02 07:32:22;;;;;;;246.77;102.82;;;;;;;-0.59;84.90;100469.86;1787770;80;21108;-81
2021/01/02 07:34:52;;;;;;;227.85;101.18;;;;;;;-0.60;84.90;100469.48;1787577;80;22043;-80
2021/01/02 07:37:28;;;;;;;177.00;79.32;;;;;;;-0.58;84.90;100478.10;1787264;79;21171;-80
2021/01/02 07:40:10;;;;;;;121.75;51.15;;;;;;;-0.47;84.90;100471.33;1787061;80;21150;-80
2021/01/02 07:42:41;;;;;;;116.20;51.02;;;;;;;-0.40;84.90;100476.55;1787426;80;21160;-80
2021/01/02 07:45:13;;;;;;;119.42;52.27;;;;;;;-0.47;84.90;100477.88;1753276;81;21565;-80
2021/01/02 07:47:52;;;;;;;122.00;50.85;;;;;;;-0.43;84.94;100479.38;1787296;80;21215;-80
2021/01/02 07:50:20;;;;;;;121.05;52.20;;;;;;;-0.38;84.94;100483.83;1787670;80;21573;-80
2021/01/02 07:52:57;;;;;;;123.82;53.58;;;;;;;-0.32;84.94;100483.45;1787611;80;21163;-81
2021/01/02 07:55:25;;;;;;;156.20;61.65;;;;;;;-0.31;84.96;100485.95;1787761;80;21143;-81
2021/01/02 07:57:51;;;;;;;207.22;80.35;;;;;;;-0.34;85.00;100486.62;1787866;80;21120;-81
2021/01/02 08:00:18;;;;;;;216.27;74.85;;;;;;;-0.36;85.00;100488.52;1787771;80;21254;-80
2021/01/02 08:02:44;;;;;;;158.82;57.88;;;;;;;-0.36;84.99;100495.91;1787317;80;21585;-80
2021/01/02 08:05:20;;;;;;;169.20;62.48;;;;;;;-0.36;84.95;100489.83;1787382;80;21639;-80
2021/01/02 08:08:00;;;;;;;156.12;59.20;;;;;;;-0.29;84.96;100488.49;1787691;80;21139;-80
2021/01/02 08:10:28;;;;;;;165.32;64.92;;;;;;;-0.20;84.95;100483.95;1787331;80;21180;-80
2021/01/02 08:12:57;;;;;;;179.35;67.08;;;;;;;-0.11;84.96;100482.06;1787870;80;21128;-81
2021/01/02 08:15:29;;;;;;;147.05;59.35;;;;;;;-0.05;84.96;100481.66;1787701;80;21179;-81
2021/01/02 08:18:01;;;;;;;130.72;53.13;;;;;;;-0.06;84.96;100479.96;1787416;80;21215;-80
2021/01/02 08:20:27;;;;;;;137.65;58.30;;;;;;;-0.14;84.96;100480.45;1787701;80;21115;-80
2021/01/02 08:22:54;;;;;;;135.72;57.03;;;;;;;-0.15;84.96;100490.59;1787825;80;21171;-81
2021/01/02 08:25:20;;;;;;;115.35;48.92;;;;;;;-0.13;84.99;100492.63;1787587;80;22111;-80
2021/01/02 08:27:48;;;;;;;120.97;56.75;;;;;;;-0.08;84.95;100489.72;1787454;80;21160;-80
2021/01/02 08:30:16;;;;;;;116.53;51.23;;;;;;;-0.04;84.95;100496.45;1756896;80;21183;-81
2021/01/02 08:32:51;;;;;;;145.62;70.12;;;;;;;-0.05;84.95;100492.14;1787240;80;21156;-81
2021/01/02 08:35:36;;;;;;;143.97;69.80;;;;;;;-0.03;84.94;100492.86;1787390;80;21151;-80
2021/01/02 08:38:06;;;;;;;140.60;64.27;;;;;;;-0.03;84.94;100504.66;1787445;80;22255;-80
2021/01/02 08:40:46;;;;;;;155.48;71.15;;;;;;;-0.02;84.94;100505.04;1787531;80;27369;-80
2021/01/02 08:43:25;;;;;;;139.88;67.37;;;;;;;-0.02;84.91;100505.04;1787505;80;21593;-80
2021/01/02 08:46:03;;;;;;;153.30;61.50;;;;;;;-0.05;84.90;100518.34;1787669;80;21136;-80
2021/01/02 08:48:30;;;;;;;151.18;68.45;;;;;;;-0.07;84.91;100526.30;1787342;80;21172;-80
2021/01/02 08:50:56;;;;;;;152.38;63.80;;;;;;;-0.04;84.91;100526.13;1787444;80;22065;-80
2021/01/02 08:53:29;;;;;;;134.55;58.68;;;;;;;-0.01;84.90;100523.77;1787511;80;21175;-80
2021/01/02 08:55:55;;;;;;;122.35;52.90;;;;;;;0.00;84.92;100526.77;1787520;80;21696;-80
2021/01/02 08:58:32;;;;;;;123.58;51.63;;;;;;;-0.01;84.91;100528.55;1787061;80;21120;-80
2021/01/02 09:00:58;;;;;;;121.42;55.75;;;;;;;0.00;84.90;100533.32;1787331;80;21200;-81
2021/01/02 09:03:24;;;;;;;128.38;57.95;;;;;;;0.00;84.87;100533.32;1782193;80;21231;-81
2021/01/02 09:05:50;;;;;;;209.60;95.80;;;;;;;0.06;84.86;100531.59;1763644;80;21227;-81
2021/01/02 09:08:18;;;;;;;1042.95;504.15;;;;;;;0.11;84.86;100537.36;1785569;80;21156;-81
2021/01/02 09:10:45;;;;;;;1101.35;546.22;;;;;;;0.12;84.84;100535.13;1769493;80;21119;-81
2021/01/02 09:13:19;;;;;;;965.08;511.60;;;;;;;0.11;84.83;100542.61;1747127;81;21140;-81
2021/01/02 09:16:05;;;;;;;670.27;346.32;;;;;;;0.12;84.82;100539.06;1716741;82;22118;-80
2021/01/02 09:18:36;;;;;;;484.13;247.27;;;;;;;0.13;84.82;100543.37;1714831;83;21212;-81
2021/01/02 09:21:14;;;;;;;109.22;52.98;;;;;;;0.15;84.83;100544.09;1716551;83;21129;-80
2021/01/02 09:23:42;;;;;;;122.65;53.75;;;;;;;0.15;84.84;100544.09;1716678;83;21140;-80
2021/01/02 09:26:31;;;;;;;105.22;46.95;;;;;;;0.20;84.84;100542.02;1754921;80;21145;-81
2021/01/02 09:28:59;;;;;;;80.20;36.13;;;;;;;0.21;84.84;100543.69;1782875;80;21205;-81
2021/01/02 09:31:26;;;;;;;100.25;42.33;;;;;;;0.24;84.83;100538.27;1782887;80;21208;-81
2021/01/02 09:33:52;;;;;;;119.75;53.05;;;;;;;0.27;84.83;100543.30;1783169;80;21136;-81
2021/01/02 09:36:21;;;;;;;144.97;61.40;;;;;;;0.30;84.82;100548.34;1779244;80;21180;-81
2021/01/02 09:38:48;;;;;;;282.43;130.50;;;;;;;0.33;84.82;100544.20;1771176;80;21132;-82
2021/01/02 09:41:18;;;;;;;118.25;56.35;;;;;;;0.38;84.81;100544.75;1778311;80;21252;-81
2021/01/02 09:43:44;;;;;;;123.55;58.75;;;;;;;0.47;84.79;100536.25;1756667;81;21153;-82
2021/01/02 09:46:17;;;;;;;111.35;51.98;;;;;;;0.53;84.85;100537.61;1756733;81;21133;-82
2021/01/02 09:48:49;;;;;;;128.53;61.40;;;;;;;0.56;84.83;100536.13;1756634;80;21181;-82
2021/01/02 09:51:16;;;;;;;137.00;65.37;;;;;;;0.61;84.85;100540.58;1780768;80;21129;-82
2021/01/02 09:53:42;;;;;;;174.77;77.03;;;;;;;0.65;84.85;100541.20;1771736;80;21215;-81
2021/01/02 09:56:09;;;;;;;144.50;66.12;;;;;;;0.68;84.84;100533.97;1782369;80;21135;-81
2021/01/02 09:58:35;;;;;;;198.50;89.55;;;;;;;0.72;84.83;100534.12;1780097;80;21640;-81
2021/01/02 10:01:02;;;;;;;134.52;57.85;;;;;;;0.79;84.87;100533.23;1770573;80;21203;-80
2021/01/02 10:03:29;;;;;;;127.27;54.58;;;;;;;0.84;84.84;100529.84;1785927;80;21152;-81
2021/01/02 10:05:55;;;;;;;126.72;57.88;;;;;;;0.90;84.83;100529.41;1761568;80;21248;-81
2021/01/02 10:08:23;;;;;;;108.70;51.05;;;;;;;0.92;84.84;100524.88;1757222;80;21606;-81
2021/01/02 10:10:51;;;;;;;104.83;49.93;;;;;;;0.95;84.81;100522.07;1775031;80;21156;-81
2021/01/02 10:13:19;;;;;;;103.85;49.98;;;;;;;0.96;84.80;100519.33;1737856;80;21131;-83
2021/01/02 10:15:46;;;;;;;105.50;48.78;;;;;;;0.97;84.82;100509.67;1753343;80;21243;-82
2021/01/02 10:18:15;;;;;;;102.87;52.93;;;;;;;0.98;84.82;100516.61;1756086;80;21653;-82
2021/01/02 10:20:41;;;;;;;104.00;53.60;;;;;;;0.98;84.81;100513.98;1777128;80;21179;-82
2021/01/02 10:23:07;;;;;;;162.27;76.33;;;;;;;1.01;84.80;100520.33;1769984;80;21160;-81
2021/01/02 10:25:34;;;;;;;156.97;67.67;;;;;;;1.06;84.85;100522.14;1766931;80;21742;-82
2021/01/02 10:28:01;;;;;;;158.05;74.30;;;;;;;1.09;84.83;100523.73;1769522;80;21191;-81
2021/01/02 10:30:27;;;;;;;161.10;71.92;;;;;;;1.09;84.82;100524.55;1769661;79;21211;-80
2021/01/02 10:32:53;;;;;;;192.30;86.30;;;;;;;1.10;84.78;100527.55;1768886;80;21202;-80
2021/01/02 10:35:20;;;;;;;150.03;67.00;;;;;;;1.16;84.77;100535.50;1771542;80;21593;-81
2021/01/02 10:37:47;;;;;;;154.78;68.25;;;;;;;1.26;84.75;100545.25;1764974;80;21165;-81
2021/01/02 10:40:15;;;;;;;141.12;65.90;;;;;;;1.35;84.74;100539.34;1773547;80;21160;-84
2021/01/02 10:42:42;;;;;;;120.65;53.65;;;;;;;1.39;84.70;100543.44;1723976;81;21194;-85
2021/01/02 10:45:11;;;;;;;176.27;71.25;;;;;;;1.41;84.67;100540.22;1785623;80;21216;-82
2021/01/02 10:47:38;;;;;;;151.80;70.52;;;;;;;1.55;84.67;100538.42;1778334;79;21147;-85
2021/01/02 10:50:05;;;;;;;157.50;72.82;;;;;;;1.65;84.68;100537.66;1762825;80;21240;-86
2021/01/02 10:52:31;;;;;;;139.97;68.55;;;;;;;1.70;84.70;100535.98;1756444;80;21137;-87
2021/01/02 10:54:58;;;;;;;136.43;62.85;;;;;;;1.78;84.66;100529.23;1758887;80;22123;-85
2021/01/02 11:00:07;;;;;;;117.03;55.23;;;;;;;1.97;84.63;100523.50;1828117;77;22866;-86
2021/01/02 11:02:33;;;;;;;137.43;70.57;;;;;;;2.00;84.58;100533.78;1823700;78;21179;-85
2021/01/02 11:04:59;;;;;;;144.87;75.67;;;;;;;2.06;84.57;100535.95;1798232;78;21267;-85
2021/01/02 11:07:25;;;;;;;171.60;89.87;;;;;;;2.08;84.51;100534.04;1794692;77;21160;-86
2021/01/02 11:09:52;;;;;;;139.88;71.00;;;;;;;2.08;84.47;100530.56;1755045;80;21172;-84
2021/01/02 11:12:19;;;;;;;190.60;88.70;;;;;;;2.08;84.43;100523.52;1761212;80;21196;-85
2021/01/02 11:14:45;;;;;;;504.05;206.20;;;;;;;2.11;84.43;100524.61;1759007;81;21758;-84
2021/01/02 11:17:11;;;;;;;682.88;284.70;;;;;;;2.15;84.41;100522.12;1762884;80;21624;-87
2021/01/02 11:19:38;;;;;;;116.00;55.65;;;;;;;2.23;84.37;100517.61;1744123;81;21131;-88
2021/01/02 11:22:04;;;;;;;138.00;70.60;;;;;;;2.22;84.30;100505.39;1724633;83;21220;-86
2021/01/02 11:24:34;;;;;;;127.45;58.13;;;;;;;2.16;84.27;100506.70;1739656;81;21156;-86
2021/01/02 11:27:01;;;;;;;437.00;182.15;;;;;;;2.05;84.21;100509.28;1707062;83;22422;-89